createdAt,value
2018-07-08T00:01:49.653Z,12.83
2018-07-08T00:04:18.754Z,13.37
2018-07-08T00:06:47.653Z,13.20
2018-07-08T00:09:16.471Z,12.90
2018-07-08T00:11:45.475Z,13.20
2018-07-08T00:14:14.256Z,13.63
2018-07-08T00:16:43.050Z,13.23
2018-07-08T00:19:11.963Z,13.40
2018-07-08T00:21:40.786Z,12.80
2018-07-08T00:24:09.637Z,13.60
2018-07-08T00:26:38.109Z,12.23
2018-07-08T00:29:06.957Z,13.37
2018-07-08T00:31:35.783Z,13.37
2018-07-08T00:34:04.922Z,11.90
2018-07-08T00:36:33.816Z,12.47
2018-07-08T00:39:02.697Z,12.60
2018-07-08T00:41:31.602Z,13.13
2018-07-08T00:44:00.406Z,12.00
2018-07-08T00:46:29.214Z,12.27
2018-07-08T00:48:58.070Z,13.60
2018-07-08T00:51:26.870Z,12.30
2018-07-08T00:53:55.652Z,11.43
2018-07-08T00:56:24.700Z,12.57
2018-07-08T00:58:53.543Z,13.57
2018-07-08T01:01:22.350Z,12.73
2018-07-08T01:03:51.365Z,12.57
2018-07-08T01:06:20.143Z,12.30
2018-07-08T01:08:49.000Z,12.57
2018-07-08T01:11:17.906Z,12.30
2018-07-08T01:13:46.742Z,12.80
2018-07-08T01:18:45.381Z,12.83
2018-07-08T01:21:14.162Z,12.60
2018-07-08T01:23:42.971Z,12.10
2018-07-08T01:26:13.458Z,13.23
2018-07-08T01:28:42.986Z,13.10
2018-07-08T01:31:12.708Z,12.77
2018-07-08T01:33:41.625Z,12.83
2018-07-08T01:36:10.945Z,12.40
2018-07-08T01:38:39.748Z,12.90
2018-07-08T01:41:08.821Z,12.90
2018-07-08T01:43:37.611Z,12.70
2018-07-08T01:46:06.735Z,13.33
2018-07-08T01:48:35.692Z,12.63
2018-07-08T01:51:04.086Z,13.93
2018-07-08T01:53:32.550Z,12.83
2018-07-08T01:56:01.874Z,13.50
2018-07-08T01:58:30.721Z,13.87
2018-07-08T02:00:59.582Z,12.63
2018-07-08T02:03:28.444Z,12.03
2018-07-08T02:05:57.294Z,12.60
2018-07-08T02:08:26.174Z,13.63
2018-07-08T02:10:55.161Z,12.80
2018-07-08T02:13:24.065Z,13.90
2018-07-08T02:15:52.911Z,13.90
2018-07-08T02:18:21.806Z,13.47
2018-07-08T02:20:50.613Z,14.93
2018-07-08T02:23:19.455Z,14.23
2018-07-08T02:25:48.281Z,14.10
2018-07-08T02:28:17.181Z,13.90
2018-07-08T02:30:46.048Z,13.80
2018-07-08T02:33:15.085Z,15.00
2018-07-08T02:35:43.928Z,14.33
2018-07-08T02:38:12.827Z,14.40
2018-07-08T02:40:41.897Z,14.90
2018-07-08T02:43:10.691Z,14.53
2018-07-08T02:45:39.506Z,14.53
2018-07-08T02:48:08.629Z,14.20
2018-07-08T02:50:37.718Z,14.63
2018-07-08T02:53:06.735Z,15.17
2018-07-08T02:55:35.554Z,14.07
2018-07-08T02:58:04.363Z,14.00
2018-07-08T03:00:33.174Z,14.60
2018-07-08T03:03:02.296Z,14.33
2018-07-08T03:05:31.083Z,14.70
2018-07-08T03:07:59.910Z,14.53
2018-07-08T03:10:28.888Z,14.50
2018-07-08T03:12:57.687Z,15.20
2018-07-08T03:15:26.616Z,15.13
2018-07-08T03:17:55.433Z,16.13
2018-07-08T03:20:24.231Z,15.97
2018-07-08T03:22:53.035Z,16.70
2018-07-08T03:25:21.841Z,17.20
2018-07-08T03:27:50.634Z,17.27
2018-07-08T03:30:19.469Z,16.80
2018-07-08T03:32:48.288Z,16.90
2018-07-08T03:35:17.073Z,15.90
2018-07-08T03:37:45.855Z,16.63
2018-07-08T03:40:14.843Z,16.50
2018-07-08T03:42:43.667Z,16.47
2018-07-08T03:45:12.574Z,17.67
2018-07-08T03:47:41.587Z,16.83
2018-07-08T03:50:10.374Z,16.97
2018-07-08T03:52:39.260Z,16.60
2018-07-08T03:55:08.672Z,17.37
2018-07-08T03:57:38.420Z,18.70
2018-07-08T04:00:08.181Z,18.23
2018-07-08T04:02:37.796Z,18.10
2018-07-08T04:05:07.575Z,18.13
2018-07-08T04:07:36.513Z,17.17
2018-07-08T04:10:06.854Z,16.93
2018-07-08T04:12:36.194Z,16.30
2018-07-08T04:15:05.494Z,16.23
2018-07-08T04:17:34.778Z,17.27
2018-07-08T04:20:05.043Z,16.63
2018-07-08T04:22:34.901Z,15.70
2018-07-08T04:25:04.545Z,18.20
2018-07-08T04:27:34.430Z,17.10
2018-07-08T04:30:03.987Z,17.30
2018-07-08T04:32:34.265Z,18.33
2018-07-08T04:35:04.201Z,16.60
2018-07-08T04:37:33.479Z,15.90
2018-07-08T04:40:03.117Z,15.40
2018-07-08T04:42:32.540Z,15.63
2018-07-08T04:45:01.398Z,15.20
2018-07-08T04:47:32.074Z,14.40
2018-07-08T04:50:01.652Z,15.87
2018-07-08T04:52:30.811Z,17.43
2018-07-08T04:55:00.777Z,16.30
2018-07-08T04:57:31.384Z,17.33
2018-07-08T05:00:01.092Z,16.73
2018-07-08T05:02:30.723Z,20.83
2018-07-08T05:04:59.913Z,15.43
2018-07-08T05:07:29.163Z,16.90
2018-07-08T05:09:58.943Z,20.03
2018-07-08T05:12:28.866Z,20.90
2018-07-08T05:14:58.698Z,17.60
2018-07-08T05:17:28.808Z,17.53
2018-07-08T05:19:58.466Z,18.87
2018-07-08T05:22:29.135Z,16.70
2018-07-08T05:24:59.940Z,17.17
2018-07-08T05:27:30.289Z,17.47
2018-07-08T05:30:00.264Z,16.03
2018-07-08T05:32:29.761Z,16.50
2018-07-08T05:35:00.949Z,19.93
2018-07-08T05:37:32.095Z,18.37
2018-07-08T05:40:01.429Z,16.53
2018-07-08T05:42:30.984Z,17.97
2018-07-08T05:45:01.420Z,17.00
2018-07-08T05:47:32.918Z,17.77
2018-07-08T05:50:02.686Z,17.50
2018-07-08T05:52:32.127Z,17.67
2018-07-08T05:55:02.317Z,16.63
2018-07-08T05:57:32.226Z,18.10
2018-07-08T06:00:03.895Z,18.30
2018-07-08T06:02:34.138Z,21.90
2018-07-08T06:05:03.810Z,18.10
2018-07-08T06:07:34.374Z,18.50
2018-07-08T06:10:04.307Z,18.67
2018-07-08T06:12:33.954Z,19.90
2018-07-08T06:15:05.960Z,18.70
2018-07-08T06:17:35.397Z,17.47
2018-07-08T06:20:07.556Z,19.23
2018-07-08T06:22:38.222Z,16.97
2018-07-08T06:25:11.177Z,17.43
2018-07-08T06:27:48.348Z,18.30
2018-07-08T06:30:18.389Z,17.70
2018-07-08T06:32:49.028Z,16.47
2018-07-08T06:35:21.194Z,17.30
2018-07-08T06:37:50.911Z,16.37
2018-07-08T06:40:20.195Z,17.40
2018-07-08T06:42:50.183Z,14.77
2018-07-08T06:45:19.910Z,17.10
2018-07-08T06:47:49.125Z,17.03
2018-07-08T06:50:18.705Z,17.07
2018-07-08T06:52:48.011Z,16.20
2018-07-08T06:55:18.386Z,16.60
2018-07-08T06:57:48.818Z,18.60
2018-07-08T07:00:20.219Z,16.40
2018-07-08T07:02:50.154Z,18.07
2018-07-08T07:05:20.887Z,15.83
2018-07-08T07:07:50.643Z,16.73
2018-07-08T07:10:20.867Z,17.57
2018-07-08T07:12:49.921Z,17.57
2018-07-08T07:15:18.778Z,16.10
2018-07-08T07:17:47.679Z,16.70
2018-07-08T07:20:16.504Z,18.87
2018-07-08T07:22:45.294Z,18.50
2018-07-08T07:25:14.210Z,16.20
2018-07-08T07:27:43.032Z,16.47
2018-07-08T07:30:11.856Z,16.70
2018-07-08T07:32:41.037Z,16.70
2018-07-08T07:35:09.839Z,16.67
2018-07-08T07:37:39.062Z,17.57
2018-07-08T07:40:07.966Z,17.10
2018-07-08T07:42:36.778Z,17.77
2018-07-08T07:45:06.143Z,17.30
2018-07-08T07:47:35.214Z,16.47
2018-07-08T07:50:04.173Z,15.73
2018-07-08T07:52:33.080Z,18.30
2018-07-08T07:55:02.135Z,15.83
2018-07-08T07:57:30.956Z,16.17
2018-07-08T07:59:59.751Z,16.50
2018-07-08T08:02:28.622Z,15.50
2018-07-08T08:04:57.915Z,15.30
2018-07-08T08:07:26.823Z,14.87
2018-07-08T08:09:55.610Z,16.60
2018-07-08T08:12:24.406Z,15.13
2018-07-08T08:14:53.214Z,16.27
2018-07-08T08:17:22.099Z,15.47
2018-07-08T08:19:50.873Z,14.00
2018-07-08T08:22:19.285Z,13.23
2018-07-08T08:24:48.249Z,12.67
2018-07-08T08:27:16.647Z,14.07
2018-07-08T08:29:47.332Z,13.50
2018-07-08T08:32:16.353Z,14.13
2018-07-08T08:34:51.381Z,12.80
2018-07-08T08:37:22.187Z,13.13
2018-07-08T08:39:51.855Z,13.00
2018-07-08T08:42:20.650Z,12.37
2018-07-08T08:44:50.416Z,11.80
2018-07-08T08:47:19.716Z,12.77
2018-07-08T08:49:49.523Z,12.67
2018-07-08T08:52:18.946Z,11.80
2018-07-08T08:54:47.806Z,12.30
2018-07-08T08:57:16.649Z,13.87
2018-07-08T08:59:45.503Z,13.57
2018-07-08T09:02:14.372Z,13.90
2018-07-08T09:04:43.713Z,12.83
2018-07-08T09:07:13.874Z,13.73
2018-07-08T09:09:42.769Z,14.10
2018-07-08T09:12:11.618Z,13.47
2018-07-08T09:14:40.935Z,13.37
2018-07-08T09:17:09.529Z,13.63
2018-07-08T09:19:37.909Z,13.03
2018-07-08T09:22:06.962Z,11.80
2018-07-08T09:24:35.452Z,12.97
2018-07-08T09:27:04.327Z,13.23
2018-07-08T09:29:33.264Z,10.90
2018-07-08T09:32:02.129Z,10.70
2018-07-08T09:34:31.045Z,11.53
2018-07-08T09:36:59.504Z,13.77
2018-07-08T09:39:28.355Z,15.33
2018-07-08T09:41:57.138Z,11.47
2018-07-08T09:44:26.391Z,9.37
2018-07-08T09:46:55.194Z,8.97
2018-07-08T09:49:23.989Z,9.00
2018-07-08T09:51:53.015Z,13.10
2018-07-08T09:54:21.833Z,12.60
2018-07-08T09:56:50.613Z,12.57
2018-07-08T09:59:19.408Z,11.17
2018-07-08T10:01:48.897Z,11.07
2018-07-08T10:04:18.652Z,12.33
2018-07-08T10:06:48.516Z,12.50
2018-07-08T10:09:19.291Z,14.17
2018-07-08T10:11:48.176Z,14.60
2018-07-08T10:14:19.357Z,15.30
2018-07-08T10:16:47.767Z,16.33
2018-07-08T10:19:17.797Z,18.60
2018-07-08T10:21:46.269Z,20.43
2018-07-08T10:24:14.950Z,22.17
2018-07-08T10:26:43.361Z,16.90
2018-07-08T10:29:14.328Z,15.13
2018-07-08T10:31:50.490Z,13.93
2018-07-08T10:34:19.670Z,13.80
2018-07-08T10:36:48.540Z,15.30
2018-07-08T10:39:17.375Z,14.20
2018-07-08T10:41:46.161Z,14.17
2018-07-08T10:44:15.009Z,12.70
2018-07-08T10:46:44.083Z,12.37
2018-07-08T10:49:12.916Z,12.40
2018-07-08T10:51:41.745Z,12.50
2018-07-08T10:54:10.619Z,12.90
2018-07-08T10:56:39.496Z,13.40
2018-07-08T10:59:08.312Z,13.63
2018-07-08T11:01:37.121Z,13.23
2018-07-08T11:04:05.708Z,12.83
2018-07-08T11:06:34.173Z,10.87
2018-07-08T11:09:03.045Z,11.47
2018-07-08T11:11:31.870Z,11.87
2018-07-08T11:14:00.674Z,12.13
2018-07-08T11:16:29.503Z,11.97
2018-07-08T11:18:58.460Z,10.30
2018-07-08T11:21:27.272Z,10.30
2018-07-08T11:23:55.669Z,9.10
2018-07-08T11:26:24.728Z,10.10
2018-07-08T11:28:54.040Z,9.73
2018-07-08T11:31:25.977Z,8.00
2018-07-08T11:33:56.785Z,8.90
2018-07-08T11:36:25.583Z,8.10
2018-07-08T11:38:56.194Z,8.33
2018-07-08T11:41:27.870Z,8.77
2018-07-08T11:43:56.830Z,8.90
2018-07-08T11:46:26.632Z,9.17
2018-07-08T11:48:59.449Z,8.57
2018-07-08T11:51:31.549Z,7.93
2018-07-08T11:54:02.664Z,7.67
2018-07-08T11:56:31.463Z,7.37
2018-07-08T11:59:03.872Z,8.13
2018-07-08T12:01:33.673Z,8.23
2018-07-08T12:04:03.630Z,8.43
2018-07-08T12:06:35.300Z,8.13
2018-07-08T12:09:04.979Z,7.43
2018-07-08T12:11:33.803Z,7.73
2018-07-08T12:14:03.095Z,7.33
2018-07-08T12:16:34.972Z,6.90
2018-07-08T12:19:06.692Z,6.67
2018-07-08T12:21:37.906Z,6.93
2018-07-08T12:24:06.974Z,6.63
2018-07-08T12:26:38.131Z,6.30
2018-07-08T12:29:10.299Z,6.67
2018-07-08T12:31:41.358Z,6.80
2018-07-08T12:34:10.473Z,6.30
2018-07-08T12:36:39.829Z,6.43
2018-07-08T12:39:11.320Z,5.87
2018-07-08T12:41:40.514Z,5.60
2018-07-08T12:44:09.403Z,7.17
2018-07-08T12:46:38.558Z,7.47
2018-07-08T12:49:07.748Z,7.50
2018-07-08T12:51:36.563Z,6.63
2018-07-08T12:54:05.560Z,6.10
2018-07-08T12:56:34.339Z,7.43
2018-07-08T12:59:03.277Z,5.97
2018-07-08T13:01:32.071Z,7.43
2018-07-08T13:04:00.900Z,10.00
2018-07-08T13:06:29.738Z,5.10
2018-07-08T13:08:58.757Z,4.20
2018-07-08T13:11:27.607Z,4.67
2018-07-08T13:13:56.432Z,4.30
2018-07-08T13:16:25.271Z,4.80
2018-07-08T13:18:54.439Z,4.13
2018-07-08T13:21:22.994Z,5.50
2018-07-08T13:23:52.024Z,4.67
2018-07-08T13:26:21.059Z,5.93
2018-07-08T13:28:49.898Z,7.77
2018-07-08T13:31:19.208Z,5.47
2018-07-08T13:33:47.999Z,5.60
2018-07-08T13:36:16.999Z,7.53
2018-07-08T13:38:46.090Z,6.30
2018-07-08T13:41:14.881Z,11.90
2018-07-08T13:43:43.272Z,4.47
2018-07-08T13:46:12.239Z,5.60
2018-07-08T13:48:41.094Z,4.33
2018-07-08T13:51:09.900Z,5.00
2018-07-08T13:53:38.792Z,5.10
2018-07-08T13:56:07.708Z,5.53
2018-07-08T13:58:36.547Z,5.07
2018-07-08T14:01:05.445Z,5.93
2018-07-08T14:03:34.298Z,4.60
2018-07-08T14:06:02.702Z,6.07
2018-07-08T14:08:31.562Z,4.83
2018-07-08T14:11:00.377Z,5.97
2018-07-08T14:13:29.263Z,4.33
2018-07-08T14:15:58.273Z,4.70
2018-07-08T14:18:27.136Z,4.87
2018-07-08T14:20:55.944Z,4.93
2018-07-08T14:23:24.790Z,7.40
2018-07-08T14:25:53.556Z,5.20
2018-07-08T14:28:22.442Z,6.17
2018-07-08T14:30:51.306Z,6.70
2018-07-08T14:33:20.175Z,7.17
2018-07-08T14:35:49.006Z,7.03
2018-07-08T14:38:17.965Z,7.30
2018-07-08T14:40:46.375Z,7.23
2018-07-08T14:43:15.435Z,9.00
2018-07-08T14:45:44.419Z,7.30
2018-07-08T14:48:13.878Z,7.33
2018-07-08T14:50:42.671Z,9.87
2018-07-08T14:53:11.513Z,13.33
2018-07-08T14:55:39.898Z,9.90
2018-07-08T14:58:08.711Z,10.43
2018-07-08T15:00:37.290Z,9.20
2018-07-08T15:03:06.346Z,10.10
2018-07-08T15:05:35.146Z,10.33
2018-07-08T15:08:03.574Z,12.23
2018-07-08T15:10:32.374Z,14.13
2018-07-08T15:13:01.160Z,10.40
2018-07-08T15:15:30.218Z,10.57
2018-07-08T15:17:59.292Z,13.87
2018-07-08T15:20:28.759Z,10.70
2018-07-08T15:22:57.828Z,9.60
2018-07-08T15:25:27.830Z,12.47
2018-07-08T15:27:57.282Z,14.33
2018-07-08T15:30:27.753Z,10.37
2018-07-08T15:32:57.733Z,9.00
2018-07-08T15:35:29.106Z,9.00
2018-07-08T15:37:58.651Z,10.77
2018-07-08T15:40:28.199Z,13.20
2018-07-08T15:42:57.534Z,10.23
2018-07-08T15:45:26.974Z,8.90
2018-07-08T15:47:57.509Z,10.13
2018-07-08T15:50:27.357Z,13.10
2018-07-08T15:52:56.442Z,9.10
2018-07-08T15:55:26.325Z,9.10
2018-07-08T15:57:55.409Z,8.83
2018-07-08T16:00:25.170Z,7.70
2018-07-08T16:02:55.460Z,8.30
2018-07-08T16:05:25.558Z,8.30
2018-07-08T16:07:54.608Z,7.30
2018-07-08T16:10:23.764Z,10.73
2018-07-08T16:12:53.716Z,6.80
2018-07-08T16:15:23.260Z,13.00
2018-07-08T16:17:53.163Z,7.63
2018-07-08T16:20:23.256Z,7.47
2018-07-08T16:22:53.844Z,8.53
2018-07-08T16:25:23.639Z,13.10
2018-07-08T16:27:55.350Z,9.03
2018-07-08T16:30:24.083Z,6.77
2018-07-08T16:32:53.642Z,9.40
2018-07-08T16:35:24.926Z,10.60
2018-07-08T16:37:55.341Z,9.10
2018-07-08T16:40:23.709Z,14.10
2018-07-08T16:42:53.029Z,15.27
2018-07-08T16:45:22.527Z,16.40
2018-07-08T16:47:52.865Z,9.93
2018-07-08T16:50:21.713Z,8.60
2018-07-08T16:52:56.807Z,8.67
2018-07-08T16:57:52.182Z,9.73
2018-07-08T17:00:20.543Z,11.83
2018-07-08T17:02:49.391Z,15.40
2018-07-08T17:05:17.793Z,9.60
2018-07-08T17:07:46.612Z,9.77
2018-07-08T17:10:15.481Z,11.33
2018-07-08T17:12:44.361Z,10.63
2018-07-08T17:15:13.194Z,12.30
2018-07-08T17:17:42.285Z,13.97
2018-07-08T17:20:11.456Z,11.93
2018-07-08T17:22:40.363Z,17.90
2018-07-08T17:25:08.752Z,14.73
2018-07-08T17:27:37.898Z,15.67
2018-07-08T17:30:06.888Z,8.57
2018-07-08T17:32:35.680Z,9.40
2018-07-08T17:35:04.990Z,10.27
2018-07-08T17:37:33.908Z,13.87
2018-07-08T17:40:02.740Z,9.57
2018-07-08T17:42:31.536Z,11.70
2018-07-08T17:44:59.963Z,11.73
2018-07-08T17:47:28.351Z,10.77
2018-07-08T17:49:57.326Z,10.50
2018-07-08T17:52:26.168Z,11.70
2018-07-08T17:54:55.179Z,12.30
2018-07-08T17:57:25.451Z,12.33
2018-07-08T17:59:54.338Z,17.63
2018-07-08T18:02:23.198Z,15.10
2018-07-08T18:04:52.896Z,19.70
2018-07-08T18:07:21.829Z,21.13
2018-07-08T18:09:50.706Z,18.97
2018-07-08T18:12:19.628Z,20.63
2018-07-08T18:14:48.623Z,20.77
2018-07-08T18:17:17.516Z,25.03
2018-07-08T18:19:46.469Z,24.17
2018-07-08T18:22:15.288Z,22.47
2018-07-08T18:24:44.104Z,22.27
2018-07-08T18:27:13.175Z,24.63
2018-07-08T18:29:41.571Z,23.93
2018-07-08T18:32:10.420Z,23.77
2018-07-08T18:34:39.456Z,23.47
2018-07-08T18:37:08.253Z,28.83
2018-07-08T18:39:36.733Z,23.17
2018-07-08T18:42:05.647Z,24.80
2018-07-08T18:44:34.481Z,22.97
2018-07-08T18:47:03.333Z,23.73
2018-07-08T18:49:32.572Z,18.77
2018-07-08T18:52:01.467Z,22.30
2018-07-08T18:54:30.344Z,20.87
2018-07-08T18:56:59.481Z,19.63
2018-07-08T18:59:28.902Z,21.50
2018-07-08T19:01:57.977Z,21.67
2018-07-08T19:04:26.977Z,21.73
2018-07-08T19:06:55.488Z,20.37
2018-07-08T19:09:24.429Z,22.30
2018-07-08T19:11:54.137Z,25.47
2018-07-08T19:14:22.971Z,18.37
2018-07-08T19:16:51.852Z,19.50
2018-07-08T19:19:20.790Z,20.57
2018-07-08T19:21:49.676Z,20.73
2018-07-08T19:24:18.552Z,20.93
2018-07-08T19:26:47.410Z,20.83
2018-07-08T19:29:16.289Z,19.43
2018-07-08T19:31:45.280Z,21.43
2018-07-08T19:34:14.532Z,19.37
2018-07-08T19:36:43.487Z,20.47
2018-07-08T19:39:11.888Z,18.80
2018-07-08T19:41:41.064Z,17.50
2018-07-08T19:44:09.996Z,16.00
2018-07-08T19:46:38.863Z,19.30
2018-07-08T19:49:08.028Z,16.63
2018-07-08T19:51:36.847Z,17.40
2018-07-08T19:54:05.754Z,14.80
2018-07-08T19:56:34.804Z,17.00
2018-07-08T19:59:03.711Z,17.13
2018-07-08T20:01:32.567Z,18.60
2018-07-08T20:04:01.436Z,18.47
2018-07-08T20:06:30.249Z,15.70
2018-07-08T20:08:59.174Z,15.47
2018-07-08T20:11:28.264Z,14.97
2018-07-08T20:13:57.113Z,18.00
2018-07-08T20:16:26.012Z,13.83
2018-07-08T20:18:55.109Z,13.43
2018-07-08T20:21:24.203Z,11.90
2018-07-08T20:23:52.808Z,13.37
2018-07-08T20:26:21.709Z,13.43
2018-07-08T20:28:50.615Z,14.90
2018-07-08T20:31:19.455Z,13.03
2018-07-08T20:33:48.304Z,12.57
2018-07-08T20:36:17.097Z,11.97
2018-07-08T20:38:45.495Z,12.07
2018-07-08T20:41:14.378Z,13.70
2018-07-08T20:43:43.183Z,12.63
2018-07-08T20:46:12.041Z,20.20
2018-07-08T20:48:41.286Z,12.40
2018-07-08T20:51:10.106Z,14.60
2018-07-08T20:53:38.980Z,13.80
2018-07-08T20:56:07.885Z,13.27
2018-07-08T20:58:37.017Z,13.70
2018-07-08T21:01:05.895Z,15.37
2018-07-08T21:03:35.083Z,15.77
2018-07-08T21:06:03.503Z,14.60
2018-07-08T21:08:32.387Z,13.93
2018-07-08T21:11:01.230Z,17.17
2018-07-08T21:13:29.601Z,14.67
2018-07-08T21:15:58.487Z,15.90
2018-07-08T21:18:27.397Z,17.27
2018-07-08T21:20:55.843Z,14.40
2018-07-08T21:23:24.734Z,14.83
2018-07-08T21:25:53.619Z,15.60
2018-07-08T21:28:22.099Z,17.03
2018-07-08T21:30:50.464Z,15.23
2018-07-08T21:33:19.499Z,15.77
2018-07-08T21:35:48.337Z,15.37
2018-07-08T21:38:17.218Z,14.50
2018-07-08T21:40:46.172Z,16.43
2018-07-08T21:43:15.067Z,16.57
2018-07-08T21:45:43.925Z,17.53
2018-07-08T21:48:12.842Z,15.47
2018-07-08T21:50:41.694Z,14.57
2018-07-08T21:53:10.526Z,15.87
2018-07-08T21:55:39.364Z,14.73
2018-07-08T21:58:08.226Z,17.33
2018-07-08T22:00:38.998Z,17.40
2018-07-08T22:03:07.885Z,15.43
2018-07-08T22:05:36.816Z,12.83
2018-07-08T22:08:06.201Z,14.63
2018-07-08T22:10:36.101Z,14.63
2018-07-08T22:13:04.905Z,13.40
2018-07-08T22:15:33.840Z,13.20
2018-07-08T22:18:02.699Z,13.47
2018-07-08T22:20:31.563Z,14.57
2018-07-08T22:23:00.501Z,14.70
2018-07-08T22:25:29.528Z,12.50
2018-07-08T22:27:58.320Z,12.60
2018-07-08T22:30:27.211Z,13.47
2018-07-08T22:32:56.277Z,11.23
2018-07-08T22:35:25.090Z,13.07
2018-07-08T22:37:53.923Z,10.63
2018-07-08T22:40:22.910Z,11.83
2018-07-08T22:42:51.796Z,10.90
2018-07-08T22:45:20.615Z,10.73
2018-07-08T22:47:49.083Z,10.80
2018-07-08T22:50:18.017Z,10.20
2018-07-08T22:52:46.877Z,8.53
2018-07-08T22:55:15.950Z,9.80
2018-07-08T22:57:44.765Z,9.10
2018-07-08T23:00:24.804Z,13.40
2018-07-08T23:02:57.560Z,7.73
2018-07-08T23:05:26.407Z,9.27
2018-07-08T23:07:55.217Z,10.10
2018-07-08T23:10:23.743Z,9.80
2018-07-08T23:12:52.691Z,8.50
2018-07-08T23:15:21.482Z,8.70
2018-07-08T23:17:50.409Z,8.83
2018-07-08T23:20:19.244Z,12.00
2018-07-08T23:22:53.067Z,8.73
2018-07-08T23:25:21.949Z,7.90
2018-07-08T23:27:50.890Z,9.00
2018-07-08T23:30:19.685Z,8.70
2018-07-08T23:32:48.921Z,9.33
2018-07-08T23:35:17.540Z,8.83
2018-07-08T23:37:46.357Z,8.87
2018-07-08T23:40:15.210Z,7.67
2018-07-08T23:42:44.041Z,9.23
2018-07-08T23:45:18.623Z,9.17
2018-07-08T23:47:47.428Z,8.90
2018-07-08T23:50:16.257Z,9.10
2018-07-08T23:52:45.107Z,11.10
2018-07-08T23:55:13.914Z,10.87
2018-07-08T23:57:42.687Z,11.37
